createdAt,value
2022-09-05T00:01:57.903Z,100143.50
2022-09-05T00:04:24.605Z,100140.53
2022-09-05T00:06:38.913Z,100128.84
2022-09-05T00:08:48.624Z,100129.50
2022-09-05T00:11:39.851Z,100125.84
2022-09-05T00:13:32.309Z,100123.88
2022-09-05T00:15:51.348Z,100130.75
2022-09-05T00:21:40.170Z,100142.13
2022-09-05T00:24:20.779Z,100127.94
2022-09-05T00:24:37.403Z,100126.25
2022-09-05T00:25:59.788Z,100134.44
2022-09-05T00:28:25.658Z,100138.41
2022-09-05T00:31:50.923Z,100141.31
2022-09-05T00:33:22.725Z,100142.22
2022-09-05T00:35:44.019Z,100141.94
2022-09-05T00:37:50.915Z,100132.22
2022-09-05T00:40:11.338Z,100160.09
2022-09-05T00:42:23.518Z,100149.56
2022-09-05T00:44:31.934Z,100170.94
2022-09-05T00:46:38.924Z,100169.25
2022-09-05T00:48:52.773Z,100171.25
2022-09-05T00:51:17.457Z,100159.69
2022-09-05T00:53:29.219Z,100165.34
2022-09-05T00:55:40.632Z,100162.81
2022-09-05T00:57:57.096Z,100166.50
2022-09-05T01:00:18.276Z,100162.28
2022-09-05T01:02:48.452Z,100167.09
2022-09-05T01:05:02.778Z,100158.38
2022-09-05T01:07:25.095Z,100156.00
2022-09-05T01:09:41.276Z,100153.66
2022-09-05T01:11:54.114Z,100148.56
2022-09-05T01:14:09.232Z,100157.59
2022-09-05T01:16:24.860Z,100151.56
2022-09-05T01:18:48.093Z,100159.03
2022-09-05T01:21:08.690Z,100147.81
2022-09-05T01:23:37.191Z,100148.09
2022-09-05T01:25:55.420Z,100146.72
2022-09-05T01:29:13.555Z,100143.50
2022-09-05T01:30:37.636Z,100131.28
2022-09-05T01:32:53.351Z,100126.25
2022-09-05T01:35:37.895Z,100134.66
2022-09-05T01:37:49.685Z,100134.81
2022-09-05T01:40:14.513Z,100160.84
2022-09-05T01:42:37.293Z,100158.59
2022-09-05T01:44:55.503Z,100164.06
2022-09-05T01:47:29.369Z,100176.03
2022-09-05T01:49:52.736Z,100184.34
2022-09-05T01:52:20.493Z,100177.59
2022-09-05T01:54:35.681Z,100174.25
2022-09-05T01:56:51.264Z,100179.72
2022-09-05T01:59:11.750Z,100186.19
2022-09-05T02:01:32.870Z,100187.19
2022-09-05T02:03:44.337Z,100190.13
2022-09-05T02:06:14.621Z,100202.63
2022-09-05T02:08:58.313Z,100218.78
2022-09-05T02:11:08.435Z,100226.06
2022-09-05T02:13:27.296Z,100214.00
2022-09-05T02:15:59.031Z,100229.47
2022-09-05T02:18:12.448Z,100244.34
2022-09-05T02:20:23.931Z,100258.50
2022-09-05T02:22:36.731Z,100273.25
2022-09-05T02:24:47.134Z,100273.66
2022-09-05T02:27:31.782Z,100277.72
2022-09-05T02:30:00.735Z,100294.00
2022-09-05T02:32:14.876Z,100303.94
2022-09-05T02:34:31.630Z,100306.59
2022-09-05T02:36:45.872Z,100305.19
2022-09-05T02:45:02.533Z,100317.69
2022-09-05T02:45:09.112Z,100320.59
2022-09-05T02:45:20.534Z,100321.03
2022-09-05T02:46:39.056Z,100326.22
2022-09-05T02:48:56.148Z,100320.03
2022-09-05T02:57:23.126Z,100324.50
2022-09-05T02:57:38.988Z,100335.44
2022-09-05T02:58:05.874Z,100333.50
2022-09-05T02:59:09.929Z,100347.31
2022-09-05T03:01:27.711Z,100343.25
2022-09-05T03:03:42.717Z,100339.03
2022-09-05T03:05:59.080Z,100353.31
2022-09-05T03:08:22.885Z,100340.53
2022-09-05T03:10:54.529Z,100350.75
2022-09-05T03:13:48.788Z,100348.91
2022-09-05T03:16:28.187Z,100349.31
2022-09-05T03:19:09.853Z,100348.50
2022-09-05T03:21:52.816Z,100353.88
2022-09-05T03:24:19.016Z,100357.22
2022-09-05T03:26:57.711Z,100342.94
2022-09-05T03:29:30.799Z,100346.56
2022-09-05T03:32:12.797Z,100357.22
2022-09-05T03:35:08.187Z,100360.88
2022-09-05T03:37:53.273Z,100368.44
2022-09-05T03:40:50.318Z,100379.72
2022-09-05T03:43:08.283Z,100383.50
2022-09-05T03:45:37.785Z,100384.72
2022-09-05T03:48:28.334Z,100395.19
2022-09-05T03:53:29.436Z,100401.75
2022-09-05T03:57:12.203Z,100402.72
2022-09-05T03:57:13.710Z,100395.59
2022-09-05T03:58:57.692Z,100399.34
2022-09-05T04:01:10.731Z,100393.06
2022-09-05T04:08:08.766Z,100393.31
2022-09-05T04:08:30.794Z,100394.31
2022-09-05T04:08:48.898Z,100405.09
2022-09-05T04:10:58.516Z,100401.56
2022-09-05T04:13:10.229Z,100407.97
2022-09-05T04:15:27.260Z,100416.06
2022-09-05T04:17:38.017Z,100408.63
2022-09-05T04:19:52.809Z,100415.16
2022-09-05T04:22:04.834Z,100419.91
2022-09-05T04:24:22.465Z,100416.63
2022-09-05T04:26:43.576Z,100410.59
2022-09-05T04:29:04.182Z,100419.56
2022-09-05T04:31:16.602Z,100422.59
2022-09-05T04:33:36.131Z,100422.97
2022-09-05T04:35:55.152Z,100430.75
2022-09-05T04:38:07.637Z,100423.28
2022-09-05T04:40:42.614Z,100421.97
2022-09-05T04:42:47.003Z,100419.78
2022-09-05T04:44:56.142Z,100421.13
2022-09-05T04:47:05.499Z,100422.75
2022-09-05T04:49:14.760Z,100423.09
2022-09-05T04:51:43.911Z,100425.75
2022-09-05T04:54:06.704Z,100431.69
2022-09-05T04:56:16.728Z,100444.00
2022-09-05T05:01:57.344Z,100441.44
2022-09-05T05:05:58.697Z,100432.75
2022-09-05T05:06:23.157Z,100439.03
2022-09-05T05:06:30.043Z,100439.16
2022-09-05T05:08:37.909Z,100447.16
2022-09-05T05:12:36.197Z,100453.69
2022-09-05T05:17:56.453Z,100457.44
2022-09-05T05:18:01.115Z,100457.81
2022-09-05T05:18:37.578Z,100467.13
2022-09-05T05:20:55.566Z,100469.53
2022-09-05T05:23:07.661Z,100470.97
2022-09-05T05:25:14.328Z,100469.53
2022-09-05T05:27:25.486Z,100470.72
2022-09-05T05:29:39.055Z,100474.34
2022-09-05T05:31:51.404Z,100472.88
2022-09-05T05:34:00.675Z,100474.94
2022-09-05T05:36:09.001Z,100469.03
2022-09-05T05:38:30.135Z,100463.34
2022-09-05T05:40:39.703Z,100471.66
2022-09-05T05:43:15.118Z,100473.72
2022-09-05T05:45:25.260Z,100476.97
2022-09-05T05:47:37.975Z,100473.09
2022-09-05T05:50:01.370Z,100483.50
2022-09-05T05:52:32.936Z,100484.22
2022-09-05T05:54:47.236Z,100491.09
2022-09-05T05:57:36.337Z,100493.63
2022-09-05T06:00:04.614Z,100500.53
2022-09-05T06:03:25.057Z,100505.72
2022-09-05T06:05:47.099Z,100506.31
2022-09-05T06:10:22.684Z,100498.91
2022-09-05T06:14:51.551Z,100494.06
2022-09-05T06:15:03.765Z,100502.53
2022-09-05T06:17:03.524Z,100516.31
2022-09-05T06:20:09.670Z,100514.09
2022-09-05T06:22:48.229Z,100521.13
2022-09-05T06:25:37.688Z,100518.00
2022-09-05T06:28:17.844Z,100524.38
2022-09-05T06:30:25.477Z,100540.44
2022-09-05T06:32:56.650Z,100541.38
2022-09-05T06:35:26.209Z,100555.91
2022-09-05T06:37:42.998Z,100549.88
2022-09-05T06:40:08.432Z,100549.31
2022-09-05T06:42:42.812Z,100556.72
2022-09-05T06:45:17.249Z,100552.88
2022-09-05T06:47:34.643Z,100560.44
2022-09-05T06:50:04.449Z,100562.38
2022-09-05T06:53:07.034Z,100560.44
2022-09-05T06:55:54.794Z,100568.63
2022-09-05T06:58:43.933Z,100568.88
2022-09-05T07:00:53.235Z,100571.44
2022-09-05T07:03:22.899Z,100576.06
2022-09-05T07:05:44.607Z,100566.72
2022-09-05T07:07:52.432Z,100575.56
2022-09-05T07:10:12.122Z,100566.91
2022-09-05T07:12:31.776Z,100573.53
2022-09-05T07:14:42.814Z,100568.22
2022-09-05T07:16:51.305Z,100574.06
2022-09-05T07:19:05.858Z,100574.47
2022-09-05T07:21:26.059Z,100570.75
2022-09-05T07:24:09.627Z,100564.34
2022-09-05T07:26:25.250Z,100568.38
2022-09-05T07:28:43.991Z,100574.31
2022-09-05T07:30:53.382Z,100576.41
2022-09-05T07:32:59.534Z,100573.19
2022-09-05T07:35:06.160Z,100569.81
2022-09-05T07:37:16.957Z,100581.50
2022-09-05T07:39:29.256Z,100582.09
2022-09-05T07:41:39.646Z,100584.50
2022-09-05T07:43:48.891Z,100574.03
2022-09-05T07:46:06.363Z,100576.75
2022-09-05T07:48:14.871Z,100590.28
2022-09-05T07:52:44.440Z,100579.69
2022-09-05T07:56:51.146Z,100594.31
2022-09-05T07:56:53.849Z,100584.63
2022-09-05T07:57:52.053Z,100592.97
2022-09-05T08:00:04.119Z,100591.66
2022-09-05T08:02:15.841Z,100585.38
2022-09-05T08:04:28.166Z,100584.59
2022-09-05T08:07:25.664Z,100598.78
2022-09-05T08:09:57.158Z,100601.56
2022-09-05T08:11:32.687Z,100603.06
2022-09-05T08:13:53.200Z,100598.44
2022-09-05T08:16:13.681Z,100614.53
2022-09-05T08:18:22.073Z,100614.53
2022-09-05T08:20:36.666Z,100617.63
2022-09-05T08:22:52.503Z,100630.16
2022-09-05T08:25:04.987Z,100623.63
2022-09-05T08:27:16.189Z,100624.75
2022-09-05T08:29:28.572Z,100621.44
2022-09-05T08:31:43.600Z,100626.28
2022-09-05T08:33:52.144Z,100620.66
2022-09-05T08:36:02.540Z,100628.44
2022-09-05T08:38:07.856Z,100608.41
2022-09-05T08:40:22.224Z,100603.47
2022-09-05T08:42:33.385Z,100607.03
2022-09-05T08:46:40.018Z,100607.34
2022-09-05T08:47:41.484Z,100594.31
2022-09-05T08:50:18.042Z,100600.97
2022-09-05T08:52:31.883Z,100600.69
2022-09-05T08:54:44.001Z,100591.88
2022-09-05T08:56:56.408Z,100604.13
2022-09-05T08:59:31.509Z,100598.53
2022-09-05T09:02:00.670Z,100617.47
2022-09-05T09:04:35.747Z,100611.56
2022-09-05T09:07:47.464Z,100602.56
2022-09-05T09:09:45.307Z,100604.75
2022-09-05T09:11:55.918Z,100600.38
2022-09-05T09:14:38.355Z,100605.59
2022-09-05T09:16:57.786Z,100601.06
2022-09-05T09:19:09.843Z,100592.19
2022-09-05T09:21:35.169Z,100596.88
2022-09-05T09:23:48.439Z,100602.28
2022-09-05T09:26:06.904Z,100591.53
2022-09-05T09:28:49.513Z,100585.38
2022-09-05T09:30:59.612Z,100582.88
2022-09-05T09:33:07.506Z,100575.94
2022-09-05T09:35:22.286Z,100573.63
2022-09-05T09:38:01.671Z,100560.31
2022-09-05T09:40:29.403Z,100553.50
2022-09-05T09:42:45.567Z,100558.84
2022-09-05T09:45:29.055Z,100550.81
2022-09-05T09:47:50.388Z,100555.66
2022-09-05T09:50:24.772Z,100549.06
2022-09-05T09:53:00.322Z,100568.28
2022-09-05T09:55:41.066Z,100549.00
2022-09-05T09:58:12.766Z,100542.03
2022-09-05T10:00:18.559Z,100532.66
2022-09-05T10:06:35.229Z,100527.22
2022-09-05T10:10:34.106Z,100532.50
2022-09-05T10:10:55.285Z,100528.28
2022-09-05T10:11:52.014Z,100517.84
2022-09-05T10:14:07.737Z,100522.81
2022-09-05T10:16:54.233Z,100519.78
2022-09-05T10:20:07.527Z,100512.72
2022-09-05T10:25:18.781Z,100510.94
2022-09-05T10:27:44.651Z,100506.94
2022-09-05T10:30:13.870Z,100505.94
2022-09-05T10:35:04.766Z,100501.59
2022-09-05T10:35:17.389Z,100497.44
2022-09-05T10:37:15.810Z,100494.25
2022-09-05T10:39:24.097Z,100501.56
2022-09-05T10:41:40.507Z,100513.31
2022-09-05T10:43:51.050Z,100520.03
2022-09-05T10:46:08.010Z,100509.31
2022-09-05T10:48:22.225Z,100528.25
2022-09-05T10:50:30.711Z,100522.25
2022-09-05T10:52:38.204Z,100531.13
2022-09-05T10:55:14.634Z,100531.97
2022-09-05T10:57:33.899Z,100534.16
2022-09-05T11:02:22.235Z,100538.38
2022-09-05T11:02:36.761Z,100542.56
2022-09-05T11:04:52.706Z,100538.88
2022-09-05T11:07:02.781Z,100534.88
2022-09-05T11:09:16.487Z,100542.06
2022-09-05T11:11:34.272Z,100545.22
2022-09-05T11:13:46.243Z,100541.75
2022-09-05T11:16:13.613Z,100541.75
2022-09-05T11:18:55.944Z,100541.75
2022-09-05T11:21:04.594Z,100540.59
2022-09-05T11:23:15.520Z,100538.16
2022-09-05T11:25:36.194Z,100535.75
2022-09-05T11:27:48.559Z,100530.94
2022-09-05T11:29:57.065Z,100532.94
2022-09-05T11:35:55.724Z,100520.88
2022-09-05T11:39:54.837Z,100527.50
2022-09-05T11:40:25.634Z,100529.06
2022-09-05T11:41:05.264Z,100539.81
2022-09-05T11:43:46.025Z,100526.06
2022-09-05T11:46:22.368Z,100524.41
2022-09-05T11:49:00.025Z,100530.13
2022-09-05T11:51:35.995Z,100535.13
2022-09-05T11:53:57.375Z,100519.97
2022-09-05T11:56:35.689Z,100531.09
2022-09-05T11:59:08.115Z,100522.25
2022-09-05T12:01:42.698Z,100522.13
2022-09-05T12:04:16.695Z,100538.25
2022-09-05T12:06:49.338Z,100532.50
2022-09-05T12:08:59.949Z,100537.34
2022-09-05T12:11:14.510Z,100551.94
2022-09-05T12:13:36.368Z,100538.88
2022-09-05T12:15:49.771Z,100549.25
2022-09-05T12:18:21.641Z,100540.19
2022-09-05T12:20:43.584Z,100533.44
2022-09-05T12:22:55.113Z,100540.13
2022-09-05T12:27:38.832Z,100531.63
2022-09-05T12:27:58.557Z,100531.16
2022-09-05T12:30:25.214Z,100526.31
2022-09-05T12:35:55.625Z,100530.84
2022-09-05T12:36:10.636Z,100520.97
2022-09-05T12:40:38.441Z,100518.72
2022-09-05T12:41:34.323Z,100515.34
2022-09-05T12:44:24.704Z,100500.41
2022-09-05T12:45:37.188Z,100489.38
2022-09-05T12:47:58.336Z,100490.34
2022-09-05T12:50:14.070Z,100480.41
2022-09-05T12:52:29.073Z,100481.38
2022-09-05T12:54:41.380Z,100484.34
2022-09-05T13:00:48.196Z,100490.56
2022-09-05T13:03:02.012Z,100481.84
2022-09-05T13:03:14.303Z,100477.69
2022-09-05T13:04:25.456Z,100472.78
2022-09-05T13:06:39.310Z,100466.16
2022-09-05T13:08:59.273Z,100456.03
2022-09-05T13:14:50.340Z,100473.84
2022-09-05T13:15:07.907Z,100460.50
2022-09-05T13:15:58.288Z,100461.66
2022-09-05T13:18:10.498Z,100451.16
2022-09-05T13:20:20.737Z,100446.69
2022-09-05T13:22:27.209Z,100442.69
2022-09-05T13:24:36.053Z,100451.13
2022-09-05T13:26:45.399Z,100447.22
2022-09-05T13:29:11.012Z,100436.84
2022-09-05T13:37:55.740Z,100438.47
2022-09-05T13:37:58.025Z,100444.97
2022-09-05T13:37:58.207Z,100446.50
2022-09-05T13:38:56.132Z,100436.84
2022-09-05T13:41:01.533Z,100445.88
2022-09-05T13:43:10.777Z,100445.03
2022-09-05T13:45:19.287Z,100443.56
2022-09-05T13:47:41.608Z,100437.72
2022-09-05T13:49:51.743Z,100428.66
2022-09-05T13:52:16.547Z,100417.66
2022-09-05T13:54:36.561Z,100418.38
2022-09-05T13:56:48.855Z,100409.00
2022-09-05T13:58:57.658Z,100411.34
2022-09-05T14:01:33.214Z,100410.66
2022-09-05T14:04:05.860Z,100407.66
2022-09-05T14:06:47.448Z,100402.44
2022-09-05T14:11:54.035Z,100409.31
2022-09-05T14:14:11.143Z,100396.88
2022-09-05T14:16:23.137Z,100390.69
2022-09-05T14:18:30.838Z,100395.72
2022-09-05T14:20:59.686Z,100386.16
2022-09-05T14:23:09.340Z,100380.78
2022-09-05T14:25:23.083Z,100379.78
2022-09-05T14:27:31.986Z,100378.47
2022-09-05T14:29:39.426Z,100375.47
2022-09-05T14:37:36.620Z,100353.75
2022-09-05T14:37:45.867Z,100359.28
2022-09-05T14:37:51.911Z,100354.22
2022-09-05T14:40:30.202Z,100357.47
2022-09-05T14:43:01.262Z,100352.63
2022-09-05T14:45:41.960Z,100348.97
2022-09-05T14:48:35.792Z,100355.28
2022-09-05T14:50:59.712Z,100340.16
2022-09-05T14:55:29.681Z,100333.66
2022-09-05T15:01:16.134Z,100326.06
2022-09-05T15:02:43.793Z,100314.94
2022-09-05T15:02:46.363Z,100313.75
2022-09-05T15:05:10.949Z,100307.34
2022-09-05T15:07:22.958Z,100309.34
2022-09-05T15:12:17.473Z,100310.84
2022-09-05T15:12:27.811Z,100312.31
2022-09-05T15:14:19.991Z,100290.19
2022-09-05T15:16:25.716Z,100289.81
2022-09-05T15:18:32.353Z,100281.91
2022-09-05T15:20:39.320Z,100296.84
2022-09-05T15:22:47.919Z,100287.78
2022-09-05T15:25:12.075Z,100300.50
2022-09-05T15:27:21.939Z,100306.13
2022-09-05T15:29:29.081Z,100287.94
2022-09-05T15:31:33.303Z,100290.88
2022-09-05T15:33:38.484Z,100284.66
2022-09-05T15:35:44.146Z,100274.41
2022-09-05T15:37:50.394Z,100279.47
2022-09-05T15:40:07.674Z,100265.31
2022-09-05T15:42:32.209Z,100273.03
2022-09-05T15:44:53.220Z,100268.06
2022-09-05T15:47:04.174Z,100268.13
2022-09-05T15:49:27.283Z,100268.59
2022-09-05T15:51:45.687Z,100264.94
2022-09-05T15:53:54.518Z,100266.59
2022-09-05T15:56:16.541Z,100250.13
2022-09-05T15:58:21.301Z,100235.13
2022-09-05T16:00:45.325Z,100246.88
2022-09-05T16:03:32.835Z,100235.56
2022-09-05T16:10:27.338Z,100232.44
2022-09-05T16:10:38.652Z,100246.66
2022-09-05T16:10:38.771Z,100232.25
2022-09-05T16:12:44.910Z,100249.19
2022-09-05T16:18:53.083Z,100243.69
2022-09-05T16:23:16.129Z,100243.50
2022-09-05T16:23:28.261Z,100231.56
2022-09-05T16:23:29.520Z,100242.88
2022-09-05T16:24:58.908Z,100236.69
2022-09-05T16:27:08.336Z,100236.06
2022-09-05T16:29:26.511Z,100232.41
2022-09-05T16:31:42.454Z,100244.22
2022-09-05T16:33:49.291Z,100232.09
2022-09-05T16:35:57.980Z,100242.75
2022-09-05T16:38:10.966Z,100233.66
2022-09-05T16:40:21.253Z,100225.56
2022-09-05T16:42:47.027Z,100218.84
2022-09-05T16:44:55.962Z,100223.66
2022-09-05T16:47:11.526Z,100243.22
2022-09-05T16:49:42.107Z,100227.19
2022-09-05T16:51:50.264Z,100223.38
2022-09-05T16:54:00.982Z,100223.88
2022-09-05T16:56:09.627Z,100215.25
2022-09-05T16:58:21.032Z,100204.94
2022-09-05T17:00:24.713Z,100221.22
2022-09-05T17:02:30.124Z,100212.69
2022-09-05T17:05:03.250Z,100215.06
2022-09-05T17:07:22.645Z,100217.56
2022-09-05T17:09:29.000Z,100226.75
2022-09-05T17:11:38.087Z,100234.94
2022-09-05T17:14:10.060Z,100234.44
2022-09-05T17:16:22.121Z,100220.34
2022-09-05T17:18:31.311Z,100226.56
2022-09-05T17:20:38.449Z,100227.38
2022-09-05T17:24:45.125Z,100234.13
2022-09-05T17:29:30.093Z,100228.44
2022-09-05T17:29:46.854Z,100208.41
2022-09-05T17:32:56.737Z,100198.75
2022-09-05T17:35:42.943Z,100205.34
2022-09-05T17:38:20.606Z,100191.81
2022-09-05T17:40:57.895Z,100191.47
2022-09-05T17:43:08.116Z,100187.97
2022-09-05T17:45:19.373Z,100185.16
2022-09-05T17:47:35.722Z,100171.06
2022-09-05T17:49:45.290Z,100172.59
2022-09-05T17:52:19.760Z,100169.41
2022-09-05T17:54:29.960Z,100166.84
2022-09-05T17:56:36.902Z,100158.00
2022-09-05T17:58:49.675Z,100150.13
2022-09-05T18:01:16.542Z,100147.91
2022-09-05T18:04:16.657Z,100144.53
2022-09-05T18:06:43.589Z,100146.50
2022-09-05T18:08:58.194Z,100151.19
2022-09-05T18:11:08.879Z,100154.88
2022-09-05T18:13:32.644Z,100135.47
2022-09-05T18:16:13.107Z,100150.00
2022-09-05T18:19:28.866Z,100145.63
2022-09-05T18:21:21.646Z,100139.44
2022-09-05T18:23:43.869Z,100146.78
2022-09-05T18:25:56.841Z,100150.97
2022-09-05T18:28:19.656Z,100152.84
2022-09-05T18:32:45.483Z,100151.81
2022-09-05T18:35:20.263Z,100137.44
2022-09-05T18:38:16.211Z,100139.44
2022-09-05T18:40:53.569Z,100156.50
2022-09-05T18:43:09.878Z,100164.53
2022-09-05T18:45:28.291Z,100165.50
2022-09-05T18:47:59.499Z,100158.63
2022-09-05T18:50:26.848Z,100167.16
2022-09-05T18:52:32.516Z,100167.75
2022-09-05T18:54:37.604Z,100168.94
2022-09-05T18:57:13.925Z,100170.06
2022-09-05T18:59:16.952Z,100176.41
2022-09-05T19:01:36.944Z,100177.41
2022-09-05T19:03:44.377Z,100168.56
2022-09-05T19:05:53.380Z,100181.94
2022-09-05T19:08:00.098Z,100187.94
2022-09-05T19:10:35.478Z,100177.41
2022-09-05T19:12:40.772Z,100184.59
2022-09-05T19:14:54.897Z,100183.06
2022-09-05T19:17:07.642Z,100177.19
2022-09-05T19:19:16.555Z,100173.84
2022-09-05T19:21:23.077Z,100163.41
2022-09-05T19:23:44.605Z,100169.63
2022-09-05T19:25:55.568Z,100170.06
2022-09-05T19:35:33.269Z,100157.88
2022-09-05T19:36:45.641Z,100152.75
2022-09-05T19:37:05.140Z,100159.63
2022-09-05T19:37:12.708Z,100152.59
2022-09-05T19:37:59.051Z,100151.78
2022-09-05T19:47:27.850Z,100161.13
2022-09-05T19:47:34.920Z,100160.41
2022-09-05T19:47:47.841Z,100159.09
2022-09-05T19:47:56.453Z,100174.72
2022-09-05T19:50:01.190Z,100178.66
2022-09-05T19:52:17.093Z,100177.97
2022-09-05T19:54:29.904Z,100176.44
2022-09-05T19:56:38.109Z,100173.06
2022-09-05T19:58:43.241Z,100177.59
2022-09-05T20:01:00.426Z,100194.44
2022-09-05T20:03:05.872Z,100198.94
2022-09-05T20:05:11.193Z,100202.59
2022-09-05T20:07:19.845Z,100210.63
2022-09-05T20:09:25.433Z,100219.47
2022-09-05T20:11:45.465Z,100222.28
2022-09-05T20:13:50.334Z,100228.59
2022-09-05T20:15:54.472Z,100219.59
2022-09-05T20:18:00.291Z,100225.94
2022-09-05T20:20:22.592Z,100236.59
2022-09-05T20:22:48.517Z,100236.59
2022-09-05T20:24:54.087Z,100248.16
2022-09-05T20:26:58.640Z,100248.97
2022-09-05T20:29:06.356Z,100251.81
2022-09-05T20:31:16.198Z,100240.28
2022-09-05T20:33:22.783Z,100237.88
2022-09-05T20:38:32.942Z,100234.53
2022-09-05T20:43:19.531Z,100240.84
2022-09-05T20:43:26.645Z,100242.56
2022-09-05T20:43:33.015Z,100253.91
2022-09-05T20:45:11.782Z,100251.25
2022-09-05T20:52:23.139Z,100248.72
2022-09-05T20:54:16.807Z,100253.22
2022-09-05T20:54:20.956Z,100264.59
2022-09-05T20:54:55.871Z,100266.28
2022-09-05T20:57:01.773Z,100274.44
2022-09-05T20:59:12.750Z,100285.13
2022-09-05T21:01:20.925Z,100284.31
2022-09-05T21:03:31.575Z,100291.44
2022-09-05T21:05:39.099Z,100285.28
2022-09-05T21:07:43.646Z,100286.41
2022-09-05T21:10:00.055Z,100291.19
2022-09-05T21:12:14.944Z,100278.13
2022-09-05T21:14:31.544Z,100283.19
2022-09-05T21:16:38.354Z,100288.13
2022-09-05T21:18:44.527Z,100285.59
2022-09-05T21:20:55.442Z,100291.06
2022-09-05T21:22:59.125Z,100292.91
2022-09-05T21:25:28.259Z,100296.56
2022-09-05T21:28:05.196Z,100285.88
2022-09-05T21:30:30.200Z,100283.50
2022-09-05T21:32:41.311Z,100291.81
2022-09-05T21:34:49.242Z,100284.94
2022-09-05T21:36:56.270Z,100284.06
2022-09-05T21:39:10.895Z,100293.75
2022-09-05T21:41:18.096Z,100290.13
2022-09-05T21:47:35.027Z,100286.47
2022-09-05T21:47:43.998Z,100293.75
2022-09-05T21:48:15.269Z,100293.75
2022-09-05T21:50:30.555Z,100289.13
2022-09-05T21:52:47.520Z,100275.78
2022-09-05T21:59:21.007Z,100272.84
2022-09-05T21:59:27.319Z,100281.66
2022-09-05T22:00:07.166Z,100269.88
2022-09-05T22:02:22.653Z,100270.44
2022-09-05T22:04:27.212Z,100275.63
2022-09-05T22:06:33.188Z,100261.97
2022-09-05T22:08:40.058Z,100265.38
2022-09-05T22:10:51.703Z,100252.84
2022-09-05T22:12:58.367Z,100258.03
2022-09-05T22:15:26.494Z,100259.16
2022-09-05T22:17:27.739Z,100262.97
2022-09-05T22:19:37.138Z,100259.75
2022-09-05T22:21:41.972Z,100261.72
2022-09-05T22:23:49.320Z,100265.34
2022-09-05T22:25:53.928Z,100255.84
2022-09-05T22:28:06.641Z,100256.97
2022-09-05T22:30:11.705Z,100266.78
2022-09-05T22:32:15.990Z,100276.63
2022-09-05T22:34:19.693Z,100273.81
2022-09-05T22:36:23.507Z,100272.84
2022-09-05T22:38:27.407Z,100253.84
2022-09-05T22:40:32.591Z,100266.91
2022-09-05T22:42:36.157Z,100259.59
2022-09-05T22:44:43.408Z,100253.28
2022-09-05T22:46:48.391Z,100256.66
2022-09-05T22:48:58.314Z,100248.50
2022-09-05T22:51:03.088Z,100238.66
2022-09-05T22:53:08.829Z,100242.84
2022-09-05T22:55:16.565Z,100233.88
2022-09-05T22:57:21.868Z,100240.91
2022-09-05T22:59:26.025Z,100237.09
2022-09-05T23:01:31.385Z,100242.28
2022-09-05T23:03:36.091Z,100238.63
2022-09-05T23:05:39.858Z,100230.47
2022-09-05T23:07:43.624Z,100232.16
2022-09-05T23:09:47.268Z,100230.47
2022-09-05T23:11:51.680Z,100233.16
2022-09-05T23:13:55.669Z,100231.47
2022-09-05T23:16:01.377Z,100230.47
2022-09-05T23:18:07.712Z,100217.13
2022-09-05T23:20:12.420Z,100233.00
2022-09-05T23:22:17.318Z,100225.81
2022-09-05T23:24:24.731Z,100222.16
2022-09-05T23:26:29.692Z,100224.00
2022-09-05T23:28:42.150Z,100224.00
2022-09-05T23:30:47.031Z,100225.81
2022-09-05T23:32:53.238Z,100229.19
2022-09-05T23:34:58.772Z,100224.84
2022-09-05T23:37:02.949Z,100226.53
2022-09-05T23:39:06.530Z,100226.53
2022-09-05T23:41:13.910Z,100240.56
2022-09-05T23:43:18.600Z,100240.56
2022-09-05T23:45:23.068Z,100242.56
2022-09-05T23:47:29.768Z,100249.72
2022-09-05T23:49:37.242Z,100240.03
2022-09-05T23:51:42.394Z,100241.00
2022-09-05T23:53:48.432Z,100240.34
2022-09-05T23:55:51.984Z,100239.47
2022-09-05T23:57:59.164Z,100238.63
